sensor_id;sensor_type;location;lat;lon;timestamp;temperature;humidity
47861;HTU21D;33620;52.340;5.984;2023-12-20T00:00:39;6.76;95.78
47861;HTU21D;33620;52.340;5.984;2023-12-20T00:03:04;6.78;95.84
47861;HTU21D;33620;52.340;5.984;2023-12-20T00:05:30;6.75;95.75
47861;HTU21D;33620;52.340;5.984;2023-12-20T00:07:57;6.72;95.59
47861;HTU21D;33620;52.340;5.984;2023-12-20T00:10:23;6.72;95.65
47861;HTU21D;33620;52.340;5.984;2023-12-20T00:12:48;6.68;95.46
47861;HTU21D;33620;52.340;5.984;2023-12-20T00:15:13;6.65;95.47
47861;HTU21D;33620;52.340;5.984;2023-12-20T00:17:39;6.63;95.50
47861;HTU21D;33620;52.340;5.984;2023-12-20T00:20:04;6.60;95.31
47861;HTU21D;33620;52.340;5.984;2023-12-20T00:22:31;6.57;95.32
47861;HTU21D;33620;52.340;5.984;2023-12-20T00:24:56;6.55;95.16
47861;HTU21D;33620;52.340;5.984;2023-12-20T00:27:22;6.53;95.30
47861;HTU21D;33620;52.340;5.984;2023-12-20T00:29:48;6.52;95.27
47861;HTU21D;33620;52.340;5.984;2023-12-20T00:32:15;6.49;95.14
47861;HTU21D;33620;52.340;5.984;2023-12-20T00:34:41;6.46;95.18
47861;HTU21D;33620;52.340;5.984;2023-12-20T00:37:06;6.43;95.24
47861;HTU21D;33620;52.340;5.984;2023-12-20T00:39:32;6.42;95.26
47861;HTU21D;33620;52.340;5.984;2023-12-20T00:41:58;6.41;95.30
47861;HTU21D;33620;52.340;5.984;2023-12-20T00:44:23;6.39;95.29
47861;HTU21D;33620;52.340;5.984;2023-12-20T00:46:48;6.38;95.28
47861;HTU21D;33620;52.340;5.984;2023-12-20T00:49:14;6.38;95.23
47861;HTU21D;33620;52.340;5.984;2023-12-20T00:51:39;6.36;95.33
47861;HTU21D;33620;52.340;5.984;2023-12-20T00:54:05;6.35;95.26
47861;HTU21D;33620;52.340;5.984;2023-12-20T00:56:30;6.35;95.32
47861;HTU21D;33620;52.340;5.984;2023-12-20T00:58:55;6.35;95.32
47861;HTU21D;33620;52.340;5.984;2023-12-20T01:01:21;6.31;95.20
47861;HTU21D;33620;52.340;5.984;2023-12-20T01:03:47;6.31;95.26
47861;HTU21D;33620;52.340;5.984;2023-12-20T01:06:13;6.28;95.24
47861;HTU21D;33620;52.340;5.984;2023-12-20T01:08:38;6.27;95.36
47861;HTU21D;33620;52.340;5.984;2023-12-20T01:11:04;6.25;95.56
47861;HTU21D;33620;52.340;5.984;2023-12-20T01:13:30;6.23;95.59
47861;HTU21D;33620;52.340;5.984;2023-12-20T01:15:56;6.25;95.60
47861;HTU21D;33620;52.340;5.984;2023-12-20T01:18:21;6.24;95.92
47861;HTU21D;33620;52.340;5.984;2023-12-20T01:20:47;6.25;96.14
47861;HTU21D;33620;52.340;5.984;2023-12-20T01:23:12;6.26;96.16
47861;HTU21D;33620;52.340;5.984;2023-12-20T01:25:38;6.28;96.16
47861;HTU21D;33620;52.340;5.984;2023-12-20T01:28:04;6.27;95.98
47861;HTU21D;33620;52.340;5.984;2023-12-20T01:30:29;6.27;96.05
47861;HTU21D;33620;52.340;5.984;2023-12-20T01:32:55;6.27;95.87
47861;HTU21D;33620;52.340;5.984;2023-12-20T01:35:20;6.25;95.86
47861;HTU21D;33620;52.340;5.984;2023-12-20T01:37:45;6.24;95.87
47861;HTU21D;33620;52.340;5.984;2023-12-20T01:40:11;6.24;95.96
47861;HTU21D;33620;52.340;5.984;2023-12-20T01:42:36;6.20;95.93
47861;HTU21D;33620;52.340;5.984;2023-12-20T01:45:02;6.16;95.94
47861;HTU21D;33620;52.340;5.984;2023-12-20T01:47:29;6.16;96.17
47861;HTU21D;33620;52.340;5.984;2023-12-20T01:49:55;6.17;96.23
47861;HTU21D;33620;52.340;5.984;2023-12-20T01:52:22;6.16;96.23
47861;HTU21D;33620;52.340;5.984;2023-12-20T01:54:48;6.13;96.10
47861;HTU21D;33620;52.340;5.984;2023-12-20T01:57:14;6.12;96.03
47861;HTU21D;33620;52.340;5.984;2023-12-20T01:59:40;6.14;96.02
47861;HTU21D;33620;52.340;5.984;2023-12-20T02:02:06;6.12;95.98
47861;HTU21D;33620;52.340;5.984;2023-12-20T02:04:32;6.13;95.95
47861;HTU21D;33620;52.340;5.984;2023-12-20T02:06:58;6.17;96.07
47861;HTU21D;33620;52.340;5.984;2023-12-20T02:09:24;6.17;95.97
47861;HTU21D;33620;52.340;5.984;2023-12-20T02:11:50;6.20;96.04
47861;HTU21D;33620;52.340;5.984;2023-12-20T02:14:15;6.22;96.07
47861;HTU21D;33620;52.340;5.984;2023-12-20T02:16:41;6.23;96.06
47861;HTU21D;33620;52.340;5.984;2023-12-20T02:19:13;6.23;95.97
47861;HTU21D;33620;52.340;5.984;2023-12-20T02:21:38;6.27;96.05
47861;HTU21D;33620;52.340;5.984;2023-12-20T02:24:04;6.30;96.11
47861;HTU21D;33620;52.340;5.984;2023-12-20T02:26:30;6.34;96.07
47861;HTU21D;33620;52.340;5.984;2023-12-20T02:28:56;6.37;96.10
47861;HTU21D;33620;52.340;5.984;2023-12-20T02:31:23;6.37;96.08
47861;HTU21D;33620;52.340;5.984;2023-12-20T02:33:48;6.38;96.18
47861;HTU21D;33620;52.340;5.984;2023-12-20T02:36:14;6.40;96.14
47861;HTU21D;33620;52.340;5.984;2023-12-20T02:38:39;6.40;96.10
47861;HTU21D;33620;52.340;5.984;2023-12-20T02:41:04;6.42;96.04
47861;HTU21D;33620;52.340;5.984;2023-12-20T02:43:30;6.42;95.88
47861;HTU21D;33620;52.340;5.984;2023-12-20T02:45:55;6.42;95.87
47861;HTU21D;33620;52.340;5.984;2023-12-20T02:48:20;6.40;95.84
47861;HTU21D;33620;52.340;5.984;2023-12-20T02:50:47;6.41;95.84
47861;HTU21D;33620;52.340;5.984;2023-12-20T02:53:14;6.43;95.85
47861;HTU21D;33620;52.340;5.984;2023-12-20T02:55:39;6.42;95.70
47861;HTU21D;33620;52.340;5.984;2023-12-20T02:58:04;6.42;95.72
47861;HTU21D;33620;52.340;5.984;2023-12-20T03:00:30;6.44;95.81
47861;HTU21D;33620;52.340;5.984;2023-12-20T03:02:55;6.40;95.73
47861;HTU21D;33620;52.340;5.984;2023-12-20T03:05:20;6.41;95.87
47861;HTU21D;33620;52.340;5.984;2023-12-20T03:07:46;6.42;95.96
47861;HTU21D;33620;52.340;5.984;2023-12-20T03:10:11;6.42;96.13
47861;HTU21D;33620;52.340;5.984;2023-12-20T03:12:37;6.43;96.14
47861;HTU21D;33620;52.340;5.984;2023-12-20T03:15:02;6.44;96.20
47861;HTU21D;33620;52.340;5.984;2023-12-20T03:17:28;6.42;96.10
47861;HTU21D;33620;52.340;5.984;2023-12-20T03:19:53;6.44;96.09
47861;HTU21D;33620;52.340;5.984;2023-12-20T03:22:18;6.45;96.10
47861;HTU21D;33620;52.340;5.984;2023-12-20T03:24:44;6.45;95.97
47861;HTU21D;33620;52.340;5.984;2023-12-20T03:27:09;6.45;96.00
47861;HTU21D;33620;52.340;5.984;2023-12-20T03:29:34;6.48;96.04
47861;HTU21D;33620;52.340;5.984;2023-12-20T03:32:00;6.50;96.10
47861;HTU21D;33620;52.340;5.984;2023-12-20T03:34:26;6.51;95.97
47861;HTU21D;33620;52.340;5.984;2023-12-20T03:36:52;6.49;95.88
47861;HTU21D;33620;52.340;5.984;2023-12-20T03:39:17;6.45;95.82
47861;HTU21D;33620;52.340;5.984;2023-12-20T03:41:42;6.43;95.92
47861;HTU21D;33620;52.340;5.984;2023-12-20T03:44:08;6.44;95.94
47861;HTU21D;33620;52.340;5.984;2023-12-20T03:46:33;6.42;95.99
47861;HTU21D;33620;52.340;5.984;2023-12-20T03:48:58;6.43;96.15
47861;HTU21D;33620;52.340;5.984;2023-12-20T03:51:24;6.45;96.20
47861;HTU21D;33620;52.340;5.984;2023-12-20T03:53:49;6.46;96.22
47861;HTU21D;33620;52.340;5.984;2023-12-20T03:56:14;6.50;96.23
47861;HTU21D;33620;52.340;5.984;2023-12-20T03:58:41;6.54;96.11
47861;HTU21D;33620;52.340;5.984;2023-12-20T04:01:10;6.51;96.17
47861;HTU21D;33620;52.340;5.984;2023-12-20T04:03:39;6.53;96.20
47861;HTU21D;33620;52.340;5.984;2023-12-20T04:06:05;6.54;96.19
47861;HTU21D;33620;52.340;5.984;2023-12-20T04:08:30;6.52;96.13
47861;HTU21D;33620;52.340;5.984;2023-12-20T04:10:56;6.50;96.18
47861;HTU21D;33620;52.340;5.984;2023-12-20T04:13:21;6.51;96.33
47861;HTU21D;33620;52.340;5.984;2023-12-20T04:15:46;6.53;96.35
47861;HTU21D;33620;52.340;5.984;2023-12-20T04:18:13;6.55;96.38
47861;HTU21D;33620;52.340;5.984;2023-12-20T04:20:38;6.55;96.44
47861;HTU21D;33620;52.340;5.984;2023-12-20T04:23:03;6.55;96.42
47861;HTU21D;33620;52.340;5.984;2023-12-20T04:25:29;6.56;96.38
47861;HTU21D;33620;52.340;5.984;2023-12-20T04:27:54;6.57;96.23
47861;HTU21D;33620;52.340;5.984;2023-12-20T04:30:19;6.56;96.30
47861;HTU21D;33620;52.340;5.984;2023-12-20T04:32:45;6.57;96.38
47861;HTU21D;33620;52.340;5.984;2023-12-20T04:35:10;6.57;96.23
47861;HTU21D;33620;52.340;5.984;2023-12-20T04:37:35;6.57;96.20
47861;HTU21D;33620;52.340;5.984;2023-12-20T04:40:01;6.56;96.24
47861;HTU21D;33620;52.340;5.984;2023-12-20T04:42:27;6.57;96.17
47861;HTU21D;33620;52.340;5.984;2023-12-20T04:44:52;6.58;96.06
47861;HTU21D;33620;52.340;5.984;2023-12-20T04:47:17;6.60;96.14
47861;HTU21D;33620;52.340;5.984;2023-12-20T04:49:43;6.64;96.13
47861;HTU21D;33620;52.340;5.984;2023-12-20T04:52:08;6.63;95.89
47861;HTU21D;33620;52.340;5.984;2023-12-20T04:54:33;6.63;95.81
47861;HTU21D;33620;52.340;5.984;2023-12-20T04:56:59;6.64;95.55
47861;HTU21D;33620;52.340;5.984;2023-12-20T04:59:24;6.68;95.41
47861;HTU21D;33620;52.340;5.984;2023-12-20T05:01:49;6.69;95.33
47861;HTU21D;33620;52.340;5.984;2023-12-20T05:04:15;6.71;95.23
47861;HTU21D;33620;52.340;5.984;2023-12-20T05:06:40;6.70;95.07
47861;HTU21D;33620;52.340;5.984;2023-12-20T05:09:06;6.73;95.01
47861;HTU21D;33620;52.340;5.984;2023-12-20T05:11:31;6.70;94.93
47861;HTU21D;33620;52.340;5.984;2023-12-20T05:13:57;6.72;95.01
47861;HTU21D;33620;52.340;5.984;2023-12-20T05:16:22;6.75;94.85
47861;HTU21D;33620;52.340;5.984;2023-12-20T05:18:48;6.74;94.71
47861;HTU21D;33620;52.340;5.984;2023-12-20T05:21:15;6.79;94.62
47861;HTU21D;33620;52.340;5.984;2023-12-20T05:23:40;6.80;94.55
47861;HTU21D;33620;52.340;5.984;2023-12-20T05:26:06;6.76;94.39
47861;HTU21D;33620;52.340;5.984;2023-12-20T05:28:31;6.78;94.35
47861;HTU21D;33620;52.340;5.984;2023-12-20T05:30:57;6.81;94.43
47861;HTU21D;33620;52.340;5.984;2023-12-20T05:33:22;6.81;94.33
47861;HTU21D;33620;52.340;5.984;2023-12-20T05:35:47;6.85;94.22
47861;HTU21D;33620;52.340;5.984;2023-12-20T05:38:13;6.84;93.97
47861;HTU21D;33620;52.340;5.984;2023-12-20T05:40:38;6.87;93.87
47861;HTU21D;33620;52.340;5.984;2023-12-20T05:43:03;6.89;93.90
47861;HTU21D;33620;52.340;5.984;2023-12-20T05:45:29;6.90;93.87
47861;HTU21D;33620;52.340;5.984;2023-12-20T05:47:54;6.94;93.79
47861;HTU21D;33620;52.340;5.984;2023-12-20T05:50:20;6.96;93.58
47861;HTU21D;33620;52.340;5.984;2023-12-20T05:52:46;6.97;93.62
47861;HTU21D;33620;52.340;5.984;2023-12-20T05:55:11;6.99;93.30
47861;HTU21D;33620;52.340;5.984;2023-12-20T05:57:37;7.02;93.24
47861;HTU21D;33620;52.340;5.984;2023-12-20T06:00:02;7.01;93.00
47861;HTU21D;33620;52.340;5.984;2023-12-20T06:02:28;7.08;93.13
47861;HTU21D;33620;52.340;5.984;2023-12-20T06:04:54;7.08;93.15
47861;HTU21D;33620;52.340;5.984;2023-12-20T06:07:19;7.10;93.06
47861;HTU21D;33620;52.340;5.984;2023-12-20T06:09:45;7.10;92.70
47861;HTU21D;33620;52.340;5.984;2023-12-20T06:12:11;7.10;92.71
47861;HTU21D;33620;52.340;5.984;2023-12-20T06:14:36;7.14;92.67
47861;HTU21D;33620;52.340;5.984;2023-12-20T06:17:02;7.14;92.59
47861;HTU21D;33620;52.340;5.984;2023-12-20T06:19:27;7.14;92.62
47861;HTU21D;33620;52.340;5.984;2023-12-20T06:21:53;7.18;92.60
47861;HTU21D;33620;52.340;5.984;2023-12-20T06:24:18;7.16;92.17
47861;HTU21D;33620;52.340;5.984;2023-12-20T06:26:44;7.20;92.34
47861;HTU21D;33620;52.340;5.984;2023-12-20T06:29:09;7.19;92.13
47861;HTU21D;33620;52.340;5.984;2023-12-20T06:31:34;7.23;92.14
47861;HTU21D;33620;52.340;5.984;2023-12-20T06:34:00;7.25;92.13
47861;HTU21D;33620;52.340;5.984;2023-12-20T06:36:26;7.22;91.96
47861;HTU21D;33620;52.340;5.984;2023-12-20T06:38:52;7.26;92.18
47861;HTU21D;33620;52.340;5.984;2023-12-20T06:41:17;7.26;92.20
47861;HTU21D;33620;52.340;5.984;2023-12-20T06:43:43;7.29;92.22
47861;HTU21D;33620;52.340;5.984;2023-12-20T06:46:08;7.26;92.24
47861;HTU21D;33620;52.340;5.984;2023-12-20T06:48:34;7.29;92.31
47861;HTU21D;33620;52.340;5.984;2023-12-20T06:51:00;7.29;92.27
47861;HTU21D;33620;52.340;5.984;2023-12-20T06:53:27;7.30;92.27
47861;HTU21D;33620;52.340;5.984;2023-12-20T06:55:52;7.31;92.35
47861;HTU21D;33620;52.340;5.984;2023-12-20T06:58:17;7.29;92.32
47861;HTU21D;33620;52.340;5.984;2023-12-20T07:00:43;7.31;92.50
47861;HTU21D;33620;52.340;5.984;2023-12-20T07:03:09;7.29;92.46
47861;HTU21D;33620;52.340;5.984;2023-12-20T07:05:34;7.30;92.26
47861;HTU21D;33620;52.340;5.984;2023-12-20T07:08:00;7.32;92.38
47861;HTU21D;33620;52.340;5.984;2023-12-20T07:10:25;7.34;92.29
47861;HTU21D;33620;52.340;5.984;2023-12-20T07:12:51;7.34;92.24
47861;HTU21D;33620;52.340;5.984;2023-12-20T07:15:17;7.37;92.14
47861;HTU21D;33620;52.340;5.984;2023-12-20T07:17:43;7.33;91.92
47861;HTU21D;33620;52.340;5.984;2023-12-20T07:20:09;7.38;91.98
47861;HTU21D;33620;52.340;5.984;2023-12-20T07:22:36;7.40;92.05
47861;HTU21D;33620;52.340;5.984;2023-12-20T07:25:01;7.41;91.98
47861;HTU21D;33620;52.340;5.984;2023-12-20T07:27:27;7.40;91.94
47861;HTU21D;33620;52.340;5.984;2023-12-20T07:29:52;7.41;92.00
47861;HTU21D;33620;52.340;5.984;2023-12-20T07:32:18;7.42;92.00
47861;HTU21D;33620;52.340;5.984;2023-12-20T07:34:44;7.42;92.08
47861;HTU21D;33620;52.340;5.984;2023-12-20T07:37:09;7.43;91.89
47861;HTU21D;33620;52.340;5.984;2023-12-20T07:39:39;7.46;91.79
47861;HTU21D;33620;52.340;5.984;2023-12-20T07:42:05;7.44;91.82
47861;HTU21D;33620;52.340;5.984;2023-12-20T07:44:31;7.43;91.47
47861;HTU21D;33620;52.340;5.984;2023-12-20T07:46:56;7.47;91.53
47861;HTU21D;33620;52.340;5.984;2023-12-20T07:49:23;7.52;91.62
47861;HTU21D;33620;52.340;5.984;2023-12-20T07:51:48;7.52;91.82
47861;HTU21D;33620;52.340;5.984;2023-12-20T07:54:13;7.50;91.71
47861;HTU21D;33620;52.340;5.984;2023-12-20T07:56:39;7.50;91.71
47861;HTU21D;33620;52.340;5.984;2023-12-20T07:59:05;7.55;91.76
47861;HTU21D;33620;52.340;5.984;2023-12-20T08:01:30;7.54;91.60
47861;HTU21D;33620;52.340;5.984;2023-12-20T08:03:56;7.58;91.64
47861;HTU21D;33620;52.340;5.984;2023-12-20T08:06:22;7.57;91.53
47861;HTU21D;33620;52.340;5.984;2023-12-20T08:08:47;7.60;91.39
47861;HTU21D;33620;52.340;5.984;2023-12-20T08:11:13;7.62;91.51
47861;HTU21D;33620;52.340;5.984;2023-12-20T08:13:38;7.63;91.32
47861;HTU21D;33620;52.340;5.984;2023-12-20T08:16:04;7.68;91.21
47861;HTU21D;33620;52.340;5.984;2023-12-20T08:18:29;7.69;91.02
47861;HTU21D;33620;52.340;5.984;2023-12-20T08:20:55;7.73;91.27
47861;HTU21D;33620;52.340;5.984;2023-12-20T08:23:20;7.72;91.36
47861;HTU21D;33620;52.340;5.984;2023-12-20T08:25:46;7.71;91.63
47861;HTU21D;33620;52.340;5.984;2023-12-20T08:28:12;7.70;91.87
47861;HTU21D;33620;52.340;5.984;2023-12-20T08:30:37;7.70;91.93
47861;HTU21D;33620;52.340;5.984;2023-12-20T08:33:02;7.70;92.47
47861;HTU21D;33620;52.340;5.984;2023-12-20T08:35:28;7.67;93.26
47861;HTU21D;33620;52.340;5.984;2023-12-20T08:37:53;7.67;93.68
47861;HTU21D;33620;52.340;5.984;2023-12-20T08:40:19;7.65;93.82
47861;HTU21D;33620;52.340;5.984;2023-12-20T08:42:45;7.62;94.00
47861;HTU21D;33620;52.340;5.984;2023-12-20T08:45:10;7.58;94.22
47861;HTU21D;33620;52.340;5.984;2023-12-20T08:47:36;7.57;94.26
47861;HTU21D;33620;52.340;5.984;2023-12-20T08:50:02;7.59;94.49
47861;HTU21D;33620;52.340;5.984;2023-12-20T08:52:28;7.61;94.55
47861;HTU21D;33620;52.340;5.984;2023-12-20T08:54:54;7.62;94.65
47861;HTU21D;33620;52.340;5.984;2023-12-20T08:57:20;7.63;94.66
47861;HTU21D;33620;52.340;5.984;2023-12-20T08:59:47;7.61;94.49
47861;HTU21D;33620;52.340;5.984;2023-12-20T09:02:12;7.64;94.49
47861;HTU21D;33620;52.340;5.984;2023-12-20T09:04:38;7.65;94.56
47861;HTU21D;33620;52.340;5.984;2023-12-20T09:07:03;7.64;94.43
47861;HTU21D;33620;52.340;5.984;2023-12-20T09:09:28;7.67;94.49
47861;HTU21D;33620;52.340;5.984;2023-12-20T09:11:54;7.68;94.54
47861;HTU21D;33620;52.340;5.984;2023-12-20T09:14:19;7.64;94.31
47861;HTU21D;33620;52.340;5.984;2023-12-20T09:16:45;7.69;94.33
47861;HTU21D;33620;52.340;5.984;2023-12-20T09:19:10;7.68;94.26
47861;HTU21D;33620;52.340;5.984;2023-12-20T09:21:35;7.72;94.05
47861;HTU21D;33620;52.340;5.984;2023-12-20T09:24:01;7.74;94.04
47861;HTU21D;33620;52.340;5.984;2023-12-20T09:26:26;7.72;93.37
47861;HTU21D;33620;52.340;5.984;2023-12-20T09:28:51;7.81;93.27
47861;HTU21D;33620;52.340;5.984;2023-12-20T09:31:17;7.81;93.17
47861;HTU21D;33620;52.340;5.984;2023-12-20T09:33:42;7.79;92.63
47861;HTU21D;33620;52.340;5.984;2023-12-20T09:36:07;7.87;92.55
47861;HTU21D;33620;52.340;5.984;2023-12-20T09:38:33;7.91;92.22
47861;HTU21D;33620;52.340;5.984;2023-12-20T09:40:58;7.93;92.23
47861;HTU21D;33620;52.340;5.984;2023-12-20T09:43:24;7.96;92.13
47861;HTU21D;33620;52.340;5.984;2023-12-20T09:45:53;7.98;92.20
47861;HTU21D;33620;52.340;5.984;2023-12-20T09:48:19;8.00;92.17
47861;HTU21D;33620;52.340;5.984;2023-12-20T09:50:45;8.02;92.24
47861;HTU21D;33620;52.340;5.984;2023-12-20T09:53:15;8.04;92.11
47861;HTU21D;33620;52.340;5.984;2023-12-20T09:55:41;8.06;91.85
47861;HTU21D;33620;52.340;5.984;2023-12-20T09:58:06;8.09;91.22
47861;HTU21D;33620;52.340;5.984;2023-12-20T10:00:36;8.13;90.60
47861;HTU21D;33620;52.340;5.984;2023-12-20T10:03:01;8.17;90.41
47861;HTU21D;33620;52.340;5.984;2023-12-20T10:05:32;8.20;90.26
47861;HTU21D;33620;52.340;5.984;2023-12-20T10:07:59;8.24;90.30
47861;HTU21D;33620;52.340;5.984;2023-12-20T10:10:25;8.23;89.79
47861;HTU21D;33620;52.340;5.984;2023-12-20T10:13:10;8.29;89.77
47861;HTU21D;33620;52.340;5.984;2023-12-20T10:15:37;8.30;89.72
47861;HTU21D;33620;52.340;5.984;2023-12-20T10:18:03;8.34;89.63
47861;HTU21D;33620;52.340;5.984;2023-12-20T10:20:29;8.34;89.35
47861;HTU21D;33620;52.340;5.984;2023-12-20T10:22:58;8.36;88.83
47861;HTU21D;33620;52.340;5.984;2023-12-20T10:25:25;8.44;89.32
47861;HTU21D;33620;52.340;5.984;2023-12-20T10:28:08;8.44;89.15
47861;HTU21D;33620;52.340;5.984;2023-12-20T10:30:33;8.50;89.05
47861;HTU21D;33620;52.340;5.984;2023-12-20T10:32:59;8.49;88.45
47861;HTU21D;33620;52.340;5.984;2023-12-20T10:35:24;8.56;88.61
47861;HTU21D;33620;52.340;5.984;2023-12-20T10:37:50;8.58;88.14
47861;HTU21D;33620;52.340;5.984;2023-12-20T10:40:20;8.56;88.13
47861;HTU21D;33620;52.340;5.984;2023-12-20T10:42:45;8.59;88.31
47861;HTU21D;33620;52.340;5.984;2023-12-20T10:45:11;8.64;88.33
47861;HTU21D;33620;52.340;5.984;2023-12-20T10:47:37;8.68;88.51
47861;HTU21D;33620;52.340;5.984;2023-12-20T10:50:05;8.65;88.76
47861;HTU21D;33620;52.340;5.984;2023-12-20T10:52:32;8.71;89.31
47861;HTU21D;33620;52.340;5.984;2023-12-20T10:54:57;8.72;88.81
47861;HTU21D;33620;52.340;5.984;2023-12-20T10:57:25;8.77;89.04
47861;HTU21D;33620;52.340;5.984;2023-12-20T10:59:53;8.81;88.24
47861;HTU21D;33620;52.340;5.984;2023-12-20T11:02:19;8.83;87.47
47861;HTU21D;33620;52.340;5.984;2023-12-20T11:04:56;8.86;87.41
47861;HTU21D;33620;52.340;5.984;2023-12-20T11:07:44;8.94;87.47
47861;HTU21D;33620;52.340;5.984;2023-12-20T11:10:25;8.95;87.57
47861;HTU21D;33620;52.340;5.984;2023-12-20T11:13:08;8.92;86.65
47861;HTU21D;33620;52.340;5.984;2023-12-20T11:15:36;8.97;86.83
47861;HTU21D;33620;52.340;5.984;2023-12-20T11:18:04;9.03;87.07
47861;HTU21D;33620;52.340;5.984;2023-12-20T11:20:40;9.07;84.69
47861;HTU21D;33620;52.340;5.984;2023-12-20T11:23:06;9.20;85.37
47861;HTU21D;33620;52.340;5.984;2023-12-20T11:25:54;9.26;85.65
47861;HTU21D;33620;52.340;5.984;2023-12-20T11:28:22;9.33;84.39
47861;HTU21D;33620;52.340;5.984;2023-12-20T11:30:50;9.41;84.10
47861;HTU21D;33620;52.340;5.984;2023-12-20T11:33:16;9.49;83.63
47861;HTU21D;33620;52.340;5.984;2023-12-20T11:35:43;9.49;83.68
47861;HTU21D;33620;52.340;5.984;2023-12-20T11:38:10;9.42;83.24
47861;HTU21D;33620;52.340;5.984;2023-12-20T11:40:36;9.42;83.46
47861;HTU21D;33620;52.340;5.984;2023-12-20T11:43:02;9.35;83.55
47861;HTU21D;33620;52.340;5.984;2023-12-20T11:45:28;9.29;82.95
47861;HTU21D;33620;52.340;5.984;2023-12-20T11:47:53;9.29;83.00
47861;HTU21D;33620;52.340;5.984;2023-12-20T11:50:20;9.40;83.68
47861;HTU21D;33620;52.340;5.984;2023-12-20T11:52:46;9.44;83.62
47861;HTU21D;33620;52.340;5.984;2023-12-20T11:55:11;9.45;82.52
47861;HTU21D;33620;52.340;5.984;2023-12-20T11:57:37;9.42;83.30
47861;HTU21D;33620;52.340;5.984;2023-12-20T12:00:04;9.37;82.91
47861;HTU21D;33620;52.340;5.984;2023-12-20T12:02:30;9.33;83.24
47861;HTU21D;33620;52.340;5.984;2023-12-20T12:04:55;9.31;83.38
47861;HTU21D;33620;52.340;5.984;2023-12-20T12:07:22;9.32;83.22
47861;HTU21D;33620;52.340;5.984;2023-12-20T12:09:47;9.30;83.32
47861;HTU21D;33620;52.340;5.984;2023-12-20T12:12:13;9.27;84.07
47861;HTU21D;33620;52.340;5.984;2023-12-20T12:14:38;9.21;83.46
47861;HTU21D;33620;52.340;5.984;2023-12-20T12:17:10;9.22;83.70
47861;HTU21D;33620;52.340;5.984;2023-12-20T12:19:35;9.17;83.61
47861;HTU21D;33620;52.340;5.984;2023-12-20T12:22:06;9.20;84.10
47861;HTU21D;33620;52.340;5.984;2023-12-20T12:24:33;9.16;84.12
47861;HTU21D;33620;52.340;5.984;2023-12-20T12:26:59;9.21;84.45
47861;HTU21D;33620;52.340;5.984;2023-12-20T12:29:24;9.21;84.31
47861;HTU21D;33620;52.340;5.984;2023-12-20T12:31:50;9.17;83.92
47861;HTU21D;33620;52.340;5.984;2023-12-20T12:34:17;9.14;83.61
47861;HTU21D;33620;52.340;5.984;2023-12-20T12:36:43;9.17;83.70
47861;HTU21D;33620;52.340;5.984;2023-12-20T12:39:08;9.17;84.14
47861;HTU21D;33620;52.340;5.984;2023-12-20T12:41:34;9.15;84.00
47861;HTU21D;33620;52.340;5.984;2023-12-20T12:44:00;9.20;83.85
47861;HTU21D;33620;52.340;5.984;2023-12-20T12:46:25;9.19;84.04
47861;HTU21D;33620;52.340;5.984;2023-12-20T12:48:51;9.22;83.98
47861;HTU21D;33620;52.340;5.984;2023-12-20T12:51:16;9.22;84.36
47861;HTU21D;33620;52.340;5.984;2023-12-20T12:53:41;9.21;84.19
47861;HTU21D;33620;52.340;5.984;2023-12-20T12:56:07;9.18;83.91
47861;HTU21D;33620;52.340;5.984;2023-12-20T12:58:33;9.15;84.32
47861;HTU21D;33620;52.340;5.984;2023-12-20T13:00:59;9.18;84.94
47861;HTU21D;33620;52.340;5.984;2023-12-20T13:03:24;9.16;85.23
47861;HTU21D;33620;52.340;5.984;2023-12-20T13:05:50;9.11;84.72
47861;HTU21D;33620;52.340;5.984;2023-12-20T13:08:15;9.06;84.50
47861;HTU21D;33620;52.340;5.984;2023-12-20T13:10:41;9.08;84.67
47861;HTU21D;33620;52.340;5.984;2023-12-20T13:13:06;9.09;84.86
47861;HTU21D;33620;52.340;5.984;2023-12-20T13:15:32;9.11;85.13
47861;HTU21D;33620;52.340;5.984;2023-12-20T13:17:57;9.11;85.39
47861;HTU21D;33620;52.340;5.984;2023-12-20T13:20:22;9.03;85.49
47861;HTU21D;33620;52.340;5.984;2023-12-20T13:22:48;9.06;85.61
47861;HTU21D;33620;52.340;5.984;2023-12-20T13:25:13;9.04;85.64
47861;HTU21D;33620;52.340;5.984;2023-12-20T13:27:39;9.05;86.05
47861;HTU21D;33620;52.340;5.984;2023-12-20T13:30:05;9.05;85.55
47861;HTU21D;33620;52.340;5.984;2023-12-20T13:32:31;9.04;85.77
47861;HTU21D;33620;52.340;5.984;2023-12-20T13:34:56;9.04;85.77
47861;HTU21D;33620;52.340;5.984;2023-12-20T13:37:22;9.03;86.33
47861;HTU21D;33620;52.340;5.984;2023-12-20T13:39:47;9.04;85.87
47861;HTU21D;33620;52.340;5.984;2023-12-20T13:42:13;9.03;86.29
47861;HTU21D;33620;52.340;5.984;2023-12-20T13:44:39;9.04;86.10
47861;HTU21D;33620;52.340;5.984;2023-12-20T13:47:04;9.02;85.87
47861;HTU21D;33620;52.340;5.984;2023-12-20T13:49:29;9.01;85.67
47861;HTU21D;33620;52.340;5.984;2023-12-20T13:51:55;9.03;85.67
47861;HTU21D;33620;52.340;5.984;2023-12-20T13:54:20;9.05;86.08
47861;HTU21D;33620;52.340;5.984;2023-12-20T13:56:47;9.04;85.84
47861;HTU21D;33620;52.340;5.984;2023-12-20T13:59:13;9.04;85.77
47861;HTU21D;33620;52.340;5.984;2023-12-20T14:01:39;8.98;85.80
47861;HTU21D;33620;52.340;5.984;2023-12-20T14:04:04;9.03;85.85
47861;HTU21D;33620;52.340;5.984;2023-12-20T14:06:29;9.03;86.07
47861;HTU21D;33620;52.340;5.984;2023-12-20T14:08:55;9.05;86.44
47861;HTU21D;33620;52.340;5.984;2023-12-20T14:11:21;9.04;86.31
47861;HTU21D;33620;52.340;5.984;2023-12-20T14:13:46;9.05;86.40
47861;HTU21D;33620;52.340;5.984;2023-12-20T14:16:11;9.06;86.54
47861;HTU21D;33620;52.340;5.984;2023-12-20T14:18:37;9.02;86.45
47861;HTU21D;33620;52.340;5.984;2023-12-20T14:21:03;9.02;86.38
47861;HTU21D;33620;52.340;5.984;2023-12-20T14:23:31;9.02;86.61
47861;HTU21D;33620;52.340;5.984;2023-12-20T14:25:56;9.01;86.60
47861;HTU21D;33620;52.340;5.984;2023-12-20T14:28:23;9.00;86.57
47861;HTU21D;33620;52.340;5.984;2023-12-20T14:30:49;9.02;86.59
47861;HTU21D;33620;52.340;5.984;2023-12-20T14:33:14;9.01;86.35
47861;HTU21D;33620;52.340;5.984;2023-12-20T14:35:39;9.03;86.64
47861;HTU21D;33620;52.340;5.984;2023-12-20T14:38:05;9.00;86.60
47861;HTU21D;33620;52.340;5.984;2023-12-20T14:40:31;9.00;86.65
47861;HTU21D;33620;52.340;5.984;2023-12-20T14:42:56;8.96;86.01
47861;HTU21D;33620;52.340;5.984;2023-12-20T14:45:22;9.01;86.37
47861;HTU21D;33620;52.340;5.984;2023-12-20T14:47:47;9.02;86.35
47861;HTU21D;33620;52.340;5.984;2023-12-20T14:50:13;8.97;86.32
47861;HTU21D;33620;52.340;5.984;2023-12-20T14:52:43;9.00;86.46
47861;HTU21D;33620;52.340;5.984;2023-12-20T14:55:08;8.96;86.39
47861;HTU21D;33620;52.340;5.984;2023-12-20T14:57:34;8.95;86.35
47861;HTU21D;33620;52.340;5.984;2023-12-20T14:59:59;8.94;86.09
47861;HTU21D;33620;52.340;5.984;2023-12-20T15:02:24;8.96;86.20
47861;HTU21D;33620;52.340;5.984;2023-12-20T15:04:50;8.95;86.43
47861;HTU21D;33620;52.340;5.984;2023-12-20T15:07:16;8.92;86.36
47861;HTU21D;33620;52.340;5.984;2023-12-20T15:09:42;8.93;86.31
47861;HTU21D;33620;52.340;5.984;2023-12-20T15:12:11;8.96;86.54
47861;HTU21D;33620;52.340;5.984;2023-12-20T15:14:36;8.92;86.35
47861;HTU21D;33620;52.340;5.984;2023-12-20T15:17:02;8.93;86.61
47861;HTU21D;33620;52.340;5.984;2023-12-20T15:19:28;8.94;86.74
47861;HTU21D;33620;52.340;5.984;2023-12-20T15:21:53;8.95;86.93